sensor_id;sensor_type;location;lat;lon;timestamp;temperature;humidity
11961;DHT22;6040;49.358;11.140;2022-09-09T00:00:47;12.80;99.90
11961;DHT22;6040;49.358;11.140;2022-09-09T00:03:17;12.80;99.90
11961;DHT22;6040;49.358;11.140;2022-09-09T00:05:51;12.80;99.90
11961;DHT22;6040;49.358;11.140;2022-09-09T00:08:21;12.80;99.90
11961;DHT22;6040;49.358;11.140;2022-09-09T00:10:56;12.70;99.90
11961;DHT22;6040;49.358;11.140;2022-09-09T00:13:29;13.00;99.90
11961;DHT22;6040;49.358;11.140;2022-09-09T00:16:00;12.70;99.90
11961;DHT22;6040;49.358;11.140;2022-09-09T00:18:35;12.60;99.90
11961;DHT22;6040;49.358;11.140;2022-09-09T00:21:10;12.60;99.90
11961;DHT22;6040;49.358;11.140;2022-09-09T00:23:45;12.60;99.90
11961;DHT22;6040;49.358;11.140;2022-09-09T00:26:18;12.60;99.90
11961;DHT22;6040;49.358;11.140;2022-09-09T00:28:52;12.60;99.90
11961;DHT22;6040;49.358;11.140;2022-09-09T00:31:26;12.60;99.90
11961;DHT22;6040;49.358;11.140;2022-09-09T00:33:55;12.60;99.90
11961;DHT22;6040;49.358;11.140;2022-09-09T00:36:27;12.50;99.90
11961;DHT22;6040;49.358;11.140;2022-09-09T00:38:57;12.50;99.90
11961;DHT22;6040;49.358;11.140;2022-09-09T00:41:35;12.50;99.90
11961;DHT22;6040;49.358;11.140;2022-09-09T00:44:17;12.50;99.90
11961;DHT22;6040;49.358;11.140;2022-09-09T00:46:56;12.50;99.90
11961;DHT22;6040;49.358;11.140;2022-09-09T00:49:37;12.50;99.90
11961;DHT22;6040;49.358;11.140;2022-09-09T00:52:17;12.50;99.90
11961;DHT22;6040;49.358;11.140;2022-09-09T00:54:54;12.80;99.90
11961;DHT22;6040;49.358;11.140;2022-09-09T00:57:26;12.50;99.90
11961;DHT22;6040;49.358;11.140;2022-09-09T00:59:59;12.40;99.90
11961;DHT22;6040;49.358;11.140;2022-09-09T01:02:35;12.40;99.90
11961;DHT22;6040;49.358;11.140;2022-09-09T01:05:10;12.40;99.90
11961;DHT22;6040;49.358;11.140;2022-09-09T01:07:44;12.40;99.90
11961;DHT22;6040;49.358;11.140;2022-09-09T01:10:23;14.00;99.90
11961;DHT22;6040;49.358;11.140;2022-09-09T01:12:55;12.40;99.90
11961;DHT22;6040;49.358;11.140;2022-09-09T01:15:25;12.40;99.90
11961;DHT22;6040;49.358;11.140;2022-09-09T01:17:58;12.30;99.90
11961;DHT22;6040;49.358;11.140;2022-09-09T01:20:31;12.40;99.90
11961;DHT22;6040;49.358;11.140;2022-09-09T01:23:28;12.30;99.90
11961;DHT22;6040;49.358;11.140;2022-09-09T01:26:15;12.30;99.90
11961;DHT22;6040;49.358;11.140;2022-09-09T01:28:44;12.30;99.90
11961;DHT22;6040;49.358;11.140;2022-09-09T01:31:14;12.30;99.90
11961;DHT22;6040;49.358;11.140;2022-09-09T01:33:42;12.20;99.90
11961;DHT22;6040;49.358;11.140;2022-09-09T01:36:12;12.20;99.90
11961;DHT22;6040;49.358;11.140;2022-09-09T01:38:41;12.20;99.90
11961;DHT22;6040;49.358;11.140;2022-09-09T01:41:09;12.20;99.90
11961;DHT22;6040;49.358;11.140;2022-09-09T01:43:37;12.20;99.90
11961;DHT22;6040;49.358;11.140;2022-09-09T01:46:04;12.20;99.90
11961;DHT22;6040;49.358;11.140;2022-09-09T01:48:32;12.20;99.90
11961;DHT22;6040;49.358;11.140;2022-09-09T01:50:58;12.20;99.90
11961;DHT22;6040;49.358;11.140;2022-09-09T01:53:25;12.20;99.90
11961;DHT22;6040;49.358;11.140;2022-09-09T01:56:00;12.20;99.90
11961;DHT22;6040;49.358;11.140;2022-09-09T01:58:41;12.20;99.90
11961;DHT22;6040;49.358;11.140;2022-09-09T02:01:19;12.20;99.90
11961;DHT22;6040;49.358;11.140;2022-09-09T02:03:52;12.20;99.90
11961;DHT22;6040;49.358;11.140;2022-09-09T02:06:26;12.20;99.90
11961;DHT22;6040;49.358;11.140;2022-09-09T02:08:56;12.20;99.90
11961;DHT22;6040;49.358;11.140;2022-09-09T02:11:26;12.20;99.90
11961;DHT22;6040;49.358;11.140;2022-09-09T02:13:59;12.20;99.90
11961;DHT22;6040;49.358;11.140;2022-09-09T02:16:30;12.20;99.90
11961;DHT22;6040;49.358;11.140;2022-09-09T02:19:02;12.20;99.90
11961;DHT22;6040;49.358;11.140;2022-09-09T02:21:33;12.20;99.90
11961;DHT22;6040;49.358;11.140;2022-09-09T02:24:03;12.20;99.90
11961;DHT22;6040;49.358;11.140;2022-09-09T02:26:34;12.20;99.90
11961;DHT22;6040;49.358;11.140;2022-09-09T02:29:06;12.20;99.90
11961;DHT22;6040;49.358;11.140;2022-09-09T02:31:36;12.20;99.90
11961;DHT22;6040;49.358;11.140;2022-09-09T02:34:05;12.20;99.90
11961;DHT22;6040;49.358;11.140;2022-09-09T02:36:34;12.20;99.90
11961;DHT22;6040;49.358;11.140;2022-09-09T02:39:03;12.20;99.90
11961;DHT22;6040;49.358;11.140;2022-09-09T02:41:32;12.20;99.90
11961;DHT22;6040;49.358;11.140;2022-09-09T02:44:00;12.20;99.90
11961;DHT22;6040;49.358;11.140;2022-09-09T02:46:40;12.20;99.90
11961;DHT22;6040;49.358;11.140;2022-09-09T02:49:11;12.30;99.90
11961;DHT22;6040;49.358;11.140;2022-09-09T02:51:49;13.60;99.90
11961;DHT22;6040;49.358;11.140;2022-09-09T02:54:22;12.40;99.90
11961;DHT22;6040;49.358;11.140;2022-09-09T02:56:53;12.40;99.90
11961;DHT22;6040;49.358;11.140;2022-09-09T02:59:22;12.40;99.90
11961;DHT22;6040;49.358;11.140;2022-09-09T03:01:53;12.40;99.90
11961;DHT22;6040;49.358;11.140;2022-09-09T03:04:20;12.40;99.90
11961;DHT22;6040;49.358;11.140;2022-09-09T03:06:46;12.50;99.90
11961;DHT22;6040;49.358;11.140;2022-09-09T03:09:13;12.40;99.90
11961;DHT22;6040;49.358;11.140;2022-09-09T03:11:40;12.40;99.90
11961;DHT22;6040;49.358;11.140;2022-09-09T03:14:07;12.70;99.90
11961;DHT22;6040;49.358;11.140;2022-09-09T03:16:34;12.40;99.90
11961;DHT22;6040;49.358;11.140;2022-09-09T03:19:02;12.40;99.90
11961;DHT22;6040;49.358;11.140;2022-09-09T03:21:29;12.40;99.90
11961;DHT22;6040;49.358;11.140;2022-09-09T03:23:56;12.40;99.90
11961;DHT22;6040;49.358;11.140;2022-09-09T03:26:22;12.30;99.90
11961;DHT22;6040;49.358;11.140;2022-09-09T03:28:49;12.30;99.90
11961;DHT22;6040;49.358;11.140;2022-09-09T03:31:18;12.30;99.90
11961;DHT22;6040;49.358;11.140;2022-09-09T03:33:45;12.30;99.90
11961;DHT22;6040;49.358;11.140;2022-09-09T03:36:13;12.30;99.90
11961;DHT22;6040;49.358;11.140;2022-09-09T03:38:40;12.30;99.90
11961;DHT22;6040;49.358;11.140;2022-09-09T03:41:07;12.30;99.90
11961;DHT22;6040;49.358;11.140;2022-09-09T03:43:34;12.30;99.90
11961;DHT22;6040;49.358;11.140;2022-09-09T03:46:02;12.30;99.90
11961;DHT22;6040;49.358;11.140;2022-09-09T03:48:29;12.30;99.90
11961;DHT22;6040;49.358;11.140;2022-09-09T03:50:56;12.20;99.90
11961;DHT22;6040;49.358;11.140;2022-09-09T03:53:24;12.20;99.90
11961;DHT22;6040;49.358;11.140;2022-09-09T03:55:53;13.90;99.90
11961;DHT22;6040;49.358;11.140;2022-09-09T03:58:22;12.20;99.90
11961;DHT22;6040;49.358;11.140;2022-09-09T04:00:54;12.20;99.90
11961;DHT22;6040;49.358;11.140;2022-09-09T04:03:21;12.20;99.90
11961;DHT22;6040;49.358;11.140;2022-09-09T04:05:50;12.20;99.90
11961;DHT22;6040;49.358;11.140;2022-09-09T04:08:17;12.20;99.90
11961;DHT22;6040;49.358;11.140;2022-09-09T04:10:46;12.30;99.90
11961;DHT22;6040;49.358;11.140;2022-09-09T04:13:13;12.30;99.90
11961;DHT22;6040;49.358;11.140;2022-09-09T04:15:43;12.30;99.90
11961;DHT22;6040;49.358;11.140;2022-09-09T04:18:10;13.80;99.90
11961;DHT22;6040;49.358;11.140;2022-09-09T04:20:37;12.30;99.90
11961;DHT22;6040;49.358;11.140;2022-09-09T04:23:04;13.30;99.90
11961;DHT22;6040;49.358;11.140;2022-09-09T04:25:31;12.30;99.90
11961;DHT22;6040;49.358;11.140;2022-09-09T04:28:01;12.30;99.90
11961;DHT22;6040;49.358;11.140;2022-09-09T04:30:28;12.30;99.90
11961;DHT22;6040;49.358;11.140;2022-09-09T04:32:54;12.20;99.90
11961;DHT22;6040;49.358;11.140;2022-09-09T04:35:22;13.30;99.90
11961;DHT22;6040;49.358;11.140;2022-09-09T04:37:49;13.40;99.90
11961;DHT22;6040;49.358;11.140;2022-09-09T04:40:16;12.30;99.90
11961;DHT22;6040;49.358;11.140;2022-09-09T04:42:43;12.30;99.90
11961;DHT22;6040;49.358;11.140;2022-09-09T04:45:11;12.30;99.90
11961;DHT22;6040;49.358;11.140;2022-09-09T04:47:39;12.30;99.90
11961;DHT22;6040;49.358;11.140;2022-09-09T04:50:07;12.30;99.90
11961;DHT22;6040;49.358;11.140;2022-09-09T04:52:34;12.30;99.90
11961;DHT22;6040;49.358;11.140;2022-09-09T04:55:01;12.40;99.90
11961;DHT22;6040;49.358;11.140;2022-09-09T04:57:28;12.30;99.90
11961;DHT22;6040;49.358;11.140;2022-09-09T04:59:57;12.30;99.90
11961;DHT22;6040;49.358;11.140;2022-09-09T05:02:26;12.30;99.90
11961;DHT22;6040;49.358;11.140;2022-09-09T05:04:53;12.40;99.90
11961;DHT22;6040;49.358;11.140;2022-09-09T05:07:20;12.30;99.90
11961;DHT22;6040;49.358;11.140;2022-09-09T05:09:47;13.40;99.90
11961;DHT22;6040;49.358;11.140;2022-09-09T05:12:14;12.40;99.90
11961;DHT22;6040;49.358;11.140;2022-09-09T05:14:42;12.40;99.90
11961;DHT22;6040;49.358;11.140;2022-09-09T05:17:09;12.40;99.90
11961;DHT22;6040;49.358;11.140;2022-09-09T05:19:37;12.50;99.90
11961;DHT22;6040;49.358;11.140;2022-09-09T05:22:04;12.50;99.90
11961;DHT22;6040;49.358;11.140;2022-09-09T05:24:31;12.50;99.90
11961;DHT22;6040;49.358;11.140;2022-09-09T05:26:58;12.60;99.90
11961;DHT22;6040;49.358;11.140;2022-09-09T05:29:27;12.70;99.90
11961;DHT22;6040;49.358;11.140;2022-09-09T05:31:54;12.80;99.90
11961;DHT22;6040;49.358;11.140;2022-09-09T05:34:21;12.90;99.90
11961;DHT22;6040;49.358;11.140;2022-09-09T05:36:49;13.00;99.90
11961;DHT22;6040;49.358;11.140;2022-09-09T05:39:17;13.10;99.90
11961;DHT22;6040;49.358;11.140;2022-09-09T05:41:44;13.30;99.90
11961;DHT22;6040;49.358;11.140;2022-09-09T05:44:10;13.50;99.90
11961;DHT22;6040;49.358;11.140;2022-09-09T05:46:37;13.60;99.90
11961;DHT22;6040;49.358;11.140;2022-09-09T05:49:04;13.70;99.90
11961;DHT22;6040;49.358;11.140;2022-09-09T05:51:31;14.00;99.90
11961;DHT22;6040;49.358;11.140;2022-09-09T05:53:59;14.70;99.90
11961;DHT22;6040;49.358;11.140;2022-09-09T05:56:27;14.00;99.90
11961;DHT22;6040;49.358;11.140;2022-09-09T05:58:55;13.90;99.90
11961;DHT22;6040;49.358;11.140;2022-09-09T06:01:24;13.80;99.90
11961;DHT22;6040;49.358;11.140;2022-09-09T06:03:51;13.80;99.90
11961;DHT22;6040;49.358;11.140;2022-09-09T06:06:20;13.80;99.90
11961;DHT22;6040;49.358;11.140;2022-09-09T06:08:49;15.30;99.90
11961;DHT22;6040;49.358;11.140;2022-09-09T06:11:20;13.70;99.90
11961;DHT22;6040;49.358;11.140;2022-09-09T06:13:47;14.60;99.90
11961;DHT22;6040;49.358;11.140;2022-09-09T06:16:18;13.70;99.90
11961;DHT22;6040;49.358;11.140;2022-09-09T06:18:45;13.80;99.90
11961;DHT22;6040;49.358;11.140;2022-09-09T06:21:16;14.40;99.90
11961;DHT22;6040;49.358;11.140;2022-09-09T06:23:45;16.40;99.90
11961;DHT22;6040;49.358;11.140;2022-09-09T06:26:14;17.50;99.90
11961;DHT22;6040;49.358;11.140;2022-09-09T06:28:44;17.50;99.90
11961;DHT22;6040;49.358;11.140;2022-09-09T06:31:12;17.10;99.90
11961;DHT22;6040;49.358;11.140;2022-09-09T06:33:41;16.60;99.90
11961;DHT22;6040;49.358;11.140;2022-09-09T06:36:11;16.10;99.90
11961;DHT22;6040;49.358;11.140;2022-09-09T06:38:39;15.70;99.90
11961;DHT22;6040;49.358;11.140;2022-09-09T06:41:06;15.40;99.90
11961;DHT22;6040;49.358;11.140;2022-09-09T06:43:33;15.20;99.90
11961;DHT22;6040;49.358;11.140;2022-09-09T06:46:04;15.20;99.90
11961;DHT22;6040;49.358;11.140;2022-09-09T06:48:31;15.10;99.90
11961;DHT22;6040;49.358;11.140;2022-09-09T06:51:03;15.10;99.90
11961;DHT22;6040;49.358;11.140;2022-09-09T06:53:31;15.10;99.90
11961;DHT22;6040;49.358;11.140;2022-09-09T06:55:59;15.10;99.90
11961;DHT22;6040;49.358;11.140;2022-09-09T06:58:26;15.10;99.90
11961;DHT22;6040;49.358;11.140;2022-09-09T07:01:02;15.10;99.90
11961;DHT22;6040;49.358;11.140;2022-09-09T07:03:29;15.10;99.90
11961;DHT22;6040;49.358;11.140;2022-09-09T07:05:56;15.20;99.90
11961;DHT22;6040;49.358;11.140;2022-09-09T07:08:23;15.30;99.90
11961;DHT22;6040;49.358;11.140;2022-09-09T07:10:51;15.40;99.90
11961;DHT22;6040;49.358;11.140;2022-09-09T07:13:19;15.50;99.90
11961;DHT22;6040;49.358;11.140;2022-09-09T07:15:46;15.60;99.90
11961;DHT22;6040;49.358;11.140;2022-09-09T07:18:14;15.70;99.90
11961;DHT22;6040;49.358;11.140;2022-09-09T07:20:41;15.80;99.90
11961;DHT22;6040;49.358;11.140;2022-09-09T07:23:08;16.00;99.90
11961;DHT22;6040;49.358;11.140;2022-09-09T07:25:35;16.20;99.90
11961;DHT22;6040;49.358;11.140;2022-09-09T07:28:02;16.30;99.90
11961;DHT22;6040;49.358;11.140;2022-09-09T07:30:29;16.40;99.90
11961;DHT22;6040;49.358;11.140;2022-09-09T07:32:55;16.50;99.90
11961;DHT22;6040;49.358;11.140;2022-09-09T07:35:25;16.50;99.90
11961;DHT22;6040;49.358;11.140;2022-09-09T07:37:52;16.50;99.90
11961;DHT22;6040;49.358;11.140;2022-09-09T07:40:19;16.50;99.90
11961;DHT22;6040;49.358;11.140;2022-09-09T07:42:47;16.60;99.90
11961;DHT22;6040;49.358;11.140;2022-09-09T07:45:14;16.90;99.90
11961;DHT22;6040;49.358;11.140;2022-09-09T07:47:40;17.20;99.90
11961;DHT22;6040;49.358;11.140;2022-09-09T07:50:08;17.40;99.90
11961;DHT22;6040;49.358;11.140;2022-09-09T07:52:39;17.50;99.90
11961;DHT22;6040;49.358;11.140;2022-09-09T07:55:06;17.80;99.90
11961;DHT22;6040;49.358;11.140;2022-09-09T07:57:32;18.40;99.90
11961;DHT22;6040;49.358;11.140;2022-09-09T07:59:59;18.90;99.90
11961;DHT22;6040;49.358;11.140;2022-09-09T08:02:26;19.20;99.90
11961;DHT22;6040;49.358;11.140;2022-09-09T08:04:54;19.50;99.90
11961;DHT22;6040;49.358;11.140;2022-09-09T08:07:21;20.10;99.90
11961;DHT22;6040;49.358;11.140;2022-09-09T08:09:50;20.60;99.90
11961;DHT22;6040;49.358;11.140;2022-09-09T08:12:17;21.10;99.90
11961;DHT22;6040;49.358;11.140;2022-09-09T08:14:43;21.60;99.90
11961;DHT22;6040;49.358;11.140;2022-09-09T08:17:10;22.10;99.90
11961;DHT22;6040;49.358;11.140;2022-09-09T08:19:37;22.70;99.90
11961;DHT22;6040;49.358;11.140;2022-09-09T08:22:04;23.20;98.90
11961;DHT22;6040;49.358;11.140;2022-09-09T08:24:31;23.70;97.40
11961;DHT22;6040;49.358;11.140;2022-09-09T08:26:59;23.80;95.40
11961;DHT22;6040;49.358;11.140;2022-09-09T08:29:26;24.00;95.30
11961;DHT22;6040;49.358;11.140;2022-09-09T08:31:55;24.30;97.00
11961;DHT22;6040;49.358;11.140;2022-09-09T08:34:23;24.70;96.40
11961;DHT22;6040;49.358;11.140;2022-09-09T08:36:51;24.80;94.40
11961;DHT22;6040;49.358;11.140;2022-09-09T08:39:19;24.60;93.20
11961;DHT22;6040;49.358;11.140;2022-09-09T08:41:59;24.60;94.00
11961;DHT22;6040;49.358;11.140;2022-09-09T08:44:36;24.60;92.30
11961;DHT22;6040;49.358;11.140;2022-09-09T08:47:12;24.60;92.40
11961;DHT22;6040;49.358;11.140;2022-09-09T08:49:52;24.90;94.20
11961;DHT22;6040;49.358;11.140;2022-09-09T08:52:25;25.40;93.50
11961;DHT22;6040;49.358;11.140;2022-09-09T08:54:59;27.00;92.90
11961;DHT22;6040;49.358;11.140;2022-09-09T08:57:31;25.50;90.00
11961;DHT22;6040;49.358;11.140;2022-09-09T08:59:58;25.60;90.80
11961;DHT22;6040;49.358;11.140;2022-09-09T09:02:30;25.70;90.70
11961;DHT22;6040;49.358;11.140;2022-09-09T09:05:09;25.50;90.00
11961;DHT22;6040;49.358;11.140;2022-09-09T09:07:50;25.80;92.10
11961;DHT22;6040;49.358;11.140;2022-09-09T09:10:29;26.30;91.80
11961;DHT22;6040;49.358;11.140;2022-09-09T09:13:02;26.40;89.20
11961;DHT22;6040;49.358;11.140;2022-09-09T09:15:33;26.70;88.70
11961;DHT22;6040;49.358;11.140;2022-09-09T09:18:04;27.10;90.70
11961;DHT22;6040;49.358;11.140;2022-09-09T09:20:37;27.40;88.50
11961;DHT22;6040;49.358;11.140;2022-09-09T09:23:16;27.50;85.50
11961;DHT22;6040;49.358;11.140;2022-09-09T09:25:45;27.00;83.80
11961;DHT22;6040;49.358;11.140;2022-09-09T09:28:17;26.10;88.40
11961;DHT22;6040;49.358;11.140;2022-09-09T09:30:48;25.80;90.90
11961;DHT22;6040;49.358;11.140;2022-09-09T09:33:19;26.00;90.00
11961;DHT22;6040;49.358;11.140;2022-09-09T09:35:48;25.90;86.10
11961;DHT22;6040;49.358;11.140;2022-09-09T09:38:17;25.40;88.70
11961;DHT22;6040;49.358;11.140;2022-09-09T09:40:49;25.30;90.20
11961;DHT22;6040;49.358;11.140;2022-09-09T09:43:21;25.30;90.90
11961;DHT22;6040;49.358;11.140;2022-09-09T09:45:50;25.10;90.90
11961;DHT22;6040;49.358;11.140;2022-09-09T09:48:17;25.50;91.50
11961;DHT22;6040;49.358;11.140;2022-09-09T09:50:48;26.10;90.70
11961;DHT22;6040;49.358;11.140;2022-09-09T09:53:22;26.50;85.00
11961;DHT22;6040;49.358;11.140;2022-09-09T09:55:54;26.20;86.20
11961;DHT22;6040;49.358;11.140;2022-09-09T09:58:23;26.00;88.30
11961;DHT22;6040;49.358;11.140;2022-09-09T10:00:52;26.40;88.70
11961;DHT22;6040;49.358;11.140;2022-09-09T10:03:23;26.90;86.00
11961;DHT22;6040;49.358;11.140;2022-09-09T10:05:51;27.50;80.30
11961;DHT22;6040;49.358;11.140;2022-09-09T10:08:19;27.60;81.90
11961;DHT22;6040;49.358;11.140;2022-09-09T10:11:04;27.90;77.40
11961;DHT22;6040;49.358;11.140;2022-09-09T10:13:39;27.70;77.70
11961;DHT22;6040;49.358;11.140;2022-09-09T10:16:24;27.10;79.00
11961;DHT22;6040;49.358;11.140;2022-09-09T10:18:59;27.00;84.00
11961;DHT22;6040;49.358;11.140;2022-09-09T10:21:54;27.10;82.30
11961;DHT22;6040;49.358;11.140;2022-09-09T10:24:51;27.00;80.20
11961;DHT22;6040;49.358;11.140;2022-09-09T10:27:22;27.20;83.80
11961;DHT22;6040;49.358;11.140;2022-09-09T10:30:02;27.70;83.20
11961;DHT22;6040;49.358;11.140;2022-09-09T10:32:38;27.90;78.70
11961;DHT22;6040;49.358;11.140;2022-09-09T10:35:13;27.60;77.40
11961;DHT22;6040;49.358;11.140;2022-09-09T10:40:36;27.30;80.00
11961;DHT22;6040;49.358;11.140;2022-09-09T10:43:13;27.30;80.60
11961;DHT22;6040;49.358;11.140;2022-09-09T10:45:53;27.00;78.60
11961;DHT22;6040;49.358;11.140;2022-09-09T10:48:31;26.70;80.60
11961;DHT22;6040;49.358;11.140;2022-09-09T10:51:17;26.90;82.00
11961;DHT22;6040;49.358;11.140;2022-09-09T10:53:53;27.20;82.60
11961;DHT22;6040;49.358;11.140;2022-09-09T10:56:25;27.00;78.70
11961;DHT22;6040;49.358;11.140;2022-09-09T10:58:56;26.80;80.90
11961;DHT22;6040;49.358;11.140;2022-09-09T11:01:28;26.80;82.20
11961;DHT22;6040;49.358;11.140;2022-09-09T11:04:00;26.90;81.20
11961;DHT22;6040;49.358;11.140;2022-09-09T11:06:32;27.10;81.40
11961;DHT22;6040;49.358;11.140;2022-09-09T11:09:02;27.10;80.90
11961;DHT22;6040;49.358;11.140;2022-09-09T11:11:36;26.90;78.90
11961;DHT22;6040;49.358;11.140;2022-09-09T11:14:10;26.30;82.10
11961;DHT22;6040;49.358;11.140;2022-09-09T11:16:44;26.00;83.00
11961;DHT22;6040;49.358;11.140;2022-09-09T11:19:16;25.40;78.90
11961;DHT22;6040;49.358;11.140;2022-09-09T11:21:46;24.90;81.70
11961;DHT22;6040;49.358;11.140;2022-09-09T11:24:17;24.70;84.70
11961;DHT22;6040;49.358;11.140;2022-09-09T11:26:49;24.60;84.20
11961;DHT22;6040;49.358;11.140;2022-09-09T11:29:38;24.40;85.80
11961;DHT22;6040;49.358;11.140;2022-09-09T11:32:27;24.30;89.40
11961;DHT22;6040;49.358;11.140;2022-09-09T11:35:07;24.20;90.20
11961;DHT22;6040;49.358;11.140;2022-09-09T11:37:51;24.10;91.10
11961;DHT22;6040;49.358;11.140;2022-09-09T11:40:23;24.00;91.80
11961;DHT22;6040;49.358;11.140;2022-09-09T11:43:02;24.00;91.60
11961;DHT22;6040;49.358;11.140;2022-09-09T11:45:32;24.00;91.60
11961;DHT22;6040;49.358;11.140;2022-09-09T11:48:02;24.10;92.20
11961;DHT22;6040;49.358;11.140;2022-09-09T11:50:31;24.20;92.30
11961;DHT22;6040;49.358;11.140;2022-09-09T11:53:20;24.30;92.90
11961;DHT22;6040;49.358;11.140;2022-09-09T11:55:59;24.70;92.40
11961;DHT22;6040;49.358;11.140;2022-09-09T11:58:27;24.90;90.40
11961;DHT22;6040;49.358;11.140;2022-09-09T12:00:58;24.80;90.90
11961;DHT22;6040;49.358;11.140;2022-09-09T12:03:41;24.70;91.10
11961;DHT22;6040;49.358;11.140;2022-09-09T12:06:14;24.70;91.30
11961;DHT22;6040;49.358;11.140;2022-09-09T12:08:44;24.70;90.90
11961;DHT22;6040;49.358;11.140;2022-09-09T12:11:12;24.60;90.20
11961;DHT22;6040;49.358;11.140;2022-09-09T12:13:53;24.50;90.60
11961;DHT22;6040;49.358;11.140;2022-09-09T12:16:32;24.40;91.10
11961;DHT22;6040;49.358;11.140;2022-09-09T12:19:06;24.30;91.10
11961;DHT22;6040;49.358;11.140;2022-09-09T12:21:45;24.10;91.20
11961;DHT22;6040;49.358;11.140;2022-09-09T12:24:19;23.90;91.40
11961;DHT22;6040;49.358;11.140;2022-09-09T12:26:52;23.70;91.20
11961;DHT22;6040;49.358;11.140;2022-09-09T12:29:27;23.50;91.70
11961;DHT22;6040;49.358;11.140;2022-09-09T12:32:00;23.30;92.10
11961;DHT22;6040;49.358;11.140;2022-09-09T12:34:34;23.20;92.60
11961;DHT22;6040;49.358;11.140;2022-09-09T12:37:06;23.10;92.90
11961;DHT22;6040;49.358;11.140;2022-09-09T12:39:38;22.90;92.60
11961;DHT22;6040;49.358;11.140;2022-09-09T12:42:17;22.80;92.50
11961;DHT22;6040;49.358;11.140;2022-09-09T12:44:51;22.70;92.40
11961;DHT22;6040;49.358;11.140;2022-09-09T12:47:19;22.70;92.30
11961;DHT22;6040;49.358;11.140;2022-09-09T12:49:50;22.70;92.40
11961;DHT22;6040;49.358;11.140;2022-09-09T12:52:21;22.70;92.50
11961;DHT22;6040;49.358;11.140;2022-09-09T12:54:49;22.80;92.30
11961;DHT22;6040;49.358;11.140;2022-09-09T12:57:17;22.80;92.50
11961;DHT22;6040;49.358;11.140;2022-09-09T12:59:44;22.60;92.90
11961;DHT22;6040;49.358;11.140;2022-09-09T13:02:19;22.40;91.20
11961;DHT22;6040;49.358;11.140;2022-09-09T13:04:46;22.20;93.00
11961;DHT22;6040;49.358;11.140;2022-09-09T13:07:14;21.80;92.70
11961;DHT22;6040;49.358;11.140;2022-09-09T13:09:42;21.90;94.90
11961;DHT22;6040;49.358;11.140;2022-09-09T13:12:14;22.20;95.70
11961;DHT22;6040;49.358;11.140;2022-09-09T13:14:43;22.40;95.50
11961;DHT22;6040;49.358;11.140;2022-09-09T13:17:19;22.50;95.90
11961;DHT22;6040;49.358;11.140;2022-09-09T13:19:48;22.60;96.00
11961;DHT22;6040;49.358;11.140;2022-09-09T13:22:23;22.80;95.40
11961;DHT22;6040;49.358;11.140;2022-09-09T13:25:04;22.50;93.90
11961;DHT22;6040;49.358;11.140;2022-09-09T13:27:33;22.30;95.00
11961;DHT22;6040;49.358;11.140;2022-09-09T13:30:19;22.10;94.60
11961;DHT22;6040;49.358;11.140;2022-09-09T13:32:48;22.00;95.50
11961;DHT22;6040;49.358;11.140;2022-09-09T13:35:26;22.00;95.00
11961;DHT22;6040;49.358;11.140;2022-09-09T13:37:55;21.90;94.80
11961;DHT22;6040;49.358;11.140;2022-09-09T13:40:22;21.90;95.00
11961;DHT22;6040;49.358;11.140;2022-09-09T13:42:52;21.80;95.30
11961;DHT22;6040;49.358;11.140;2022-09-09T13:45:22;21.80;95.10
11961;DHT22;6040;49.358;11.140;2022-09-09T13:47:52;21.60;95.10
11961;DHT22;6040;49.358;11.140;2022-09-09T13:50:22;21.50;95.10
11961;DHT22;6040;49.358;11.140;2022-09-09T13:52:50;21.50;95.10
11961;DHT22;6040;49.358;11.140;2022-09-09T13:55:22;21.40;95.30
11961;DHT22;6040;49.358;11.140;2022-09-09T13:57:53;21.20;95.50
11961;DHT22;6040;49.358;11.140;2022-09-09T14:00:20;21.20;95.70
11961;DHT22;6040;49.358;11.140;2022-09-09T14:02:48;21.00;96.30
11961;DHT22;6040;49.358;11.140;2022-09-09T14:05:15;20.80;97.70
11961;DHT22;6040;49.358;11.140;2022-09-09T14:07:43;20.50;98.10
11961;DHT22;6040;49.358;11.140;2022-09-09T14:10:11;20.00;99.90
11961;DHT22;6040;49.358;11.140;2022-09-09T14:12:40;19.60;99.90
11961;DHT22;6040;49.358;11.140;2022-09-09T14:15:09;19.30;99.90
11961;DHT22;6040;49.358;11.140;2022-09-09T14:17:36;19.20;99.90
11961;DHT22;6040;49.358;11.140;2022-09-09T14:20:04;19.30;99.90
11961;DHT22;6040;49.358;11.140;2022-09-09T14:22:35;19.30;99.90
11961;DHT22;6040;49.358;11.140;2022-09-09T14:25:02;19.60;99.90
11961;DHT22;6040;49.358;11.140;2022-09-09T14:27:29;20.00;99.90
11961;DHT22;6040;49.358;11.140;2022-09-09T14:29:57;20.10;99.90
11961;DHT22;6040;49.358;11.140;2022-09-09T14:32:25;20.30;99.90
11961;DHT22;6040;49.358;11.140;2022-09-09T14:34:52;20.30;99.90
11961;DHT22;6040;49.358;11.140;2022-09-09T14:37:20;20.40;99.90
11961;DHT22;6040;49.358;11.140;2022-09-09T14:39:47;20.40;99.90
11961;DHT22;6040;49.358;11.140;2022-09-09T14:42:16;20.40;99.90
11961;DHT22;6040;49.358;11.140;2022-09-09T14:44:42;20.30;99.90
11961;DHT22;6040;49.358;11.140;2022-09-09T14:47:11;20.10;99.90
11961;DHT22;6040;49.358;11.140;2022-09-09T14:49:38;20.00;99.90
11961;DHT22;6040;49.358;11.140;2022-09-09T14:52:05;20.00;99.90
11961;DHT22;6040;49.358;11.140;2022-09-09T14:54:32;20.00;99.90
11961;DHT22;6040;49.358;11.140;2022-09-09T14:56:59;20.00;99.90
11961;DHT22;6040;49.358;11.140;2022-09-09T14:59:25;20.10;99.90
11961;DHT22;6040;49.358;11.140;2022-09-09T15:01:54;20.20;99.90
11961;DHT22;6040;49.358;11.140;2022-09-09T15:04:22;20.40;99.90
11961;DHT22;6040;49.358;11.140;2022-09-09T15:06:49;20.50;99.90
11961;DHT22;6040;49.358;11.140;2022-09-09T15:09:17;20.60;99.90
11961;DHT22;6040;49.358;11.140;2022-09-09T15:11:44;20.40;99.90
11961;DHT22;6040;49.358;11.140;2022-09-09T15:17:19;21.00;99.90
11961;DHT22;6040;49.358;11.140;2022-09-09T15:19:48;21.10;99.90
11961;DHT22;6040;49.358;11.140;2022-09-09T15:22:15;21.10;99.90
11961;DHT22;6040;49.358;11.140;2022-09-09T15:24:42;21.10;99.90
11961;DHT22;6040;49.358;11.140;2022-09-09T15:27:09;21.10;99.90
11961;DHT22;6040;49.358;11.140;2022-09-09T15:29:36;21.20;99.90
11961;DHT22;6040;49.358;11.140;2022-09-09T15:32:04;21.30;99.90
11961;DHT22;6040;49.358;11.140;2022-09-09T15:34:31;21.40;99.90
11961;DHT22;6040;49.358;11.140;2022-09-09T15:36:59;21.50;99.90
11961;DHT22;6040;49.358;11.140;2022-09-09T15:39:26;21.50;99.90
11961;DHT22;6040;49.358;11.140;2022-09-09T15:41:53;21.60;99.90
11961;DHT22;6040;49.358;11.140;2022-09-09T15:44:19;21.50;99.90
11961;DHT22;6040;49.358;11.140;2022-09-09T15:46:50;21.50;99.90
11961;DHT22;6040;49.358;11.140;2022-09-09T15:49:20;21.50;99.90
11961;DHT22;6040;49.358;11.140;2022-09-09T15:51:52;21.30;99.90
11961;DHT22;6040;49.358;11.140;2022-09-09T15:54:22;21.20;99.90
11961;DHT22;6040;49.358;11.140;2022-09-09T15:56:51;21.10;99.90